Airfield :







YOU CAN JOIN US ON...

 
LOGIN :

Register | Disclaimer

   EN    FR    IT 

 









Legend :    VFR   Marginal VFR   IFR   Intensive IFR   Very Intensive IFR
Visi :
Ceiling :
>= 8 km
>= 3000ft
5 to 8 km
1000 to 3000 ft
1500m to 5 km
500 to 1000 ft
800 to 1500m
200 to 500 ft
< 800m
< 200 ft
Symbols :   Thunderstorms  Fog  Heavy snow  Heavy precipitations  Wind > 20 kt






- Airport Elevation : 244 ft
- IATA code : YQB


CYQB - Quebec - Jean Lesage Int.

CURRENT METAR :
  • 180700Z VRB02KT 15SM SKC M24/M26 A3050 RMK SLP339

EXPIRED METARs :
  • 180600Z 00000KT 15SM SKC M24/M26 A3050 RMK SLP336
  • 180500Z 00000KT 15SM SKC M24/M27 A3048 RMK SLP332

TAF TAF CYQB
Valid from the 18 at 06:00 until the 19 at 06:00 UTC


180538Z 1806/1906 VRB03KT P6SM SKC
BECMG 1810/1812 03005KT
FM181500 09007KT P6SM BKN120
FM181700 09010G20KT P6SM -SN OVC030
TEMPO 1817/1820 3SM -SN OVC020
FM182000 09010G20KT 1SM -SN OVC008
FM182300 09010G20KT 3/4SM -SN VV005
FM190200 VRB03KT 3/4SM -SN BR OVC003
PROB30 1902/1905 2SM -FZDZ BR
FM190500 24010G20KT 6SM BR OVC005 RMK NXT FCST BY 181200Z
ATIS : ENG : +1 418-871-6893 FRA : +1 418-871-6895



MET'MAP, your aeronautical weather chart ! - Copyright ORBIFLY December 2007 - Disclaimer

ORBIFLY MET'MAP TEAM :

Programming & Development : Alexandra Zaïnal
Concept & original design : Baudouin d'Aumeries
Assistance for programming : Marc-Olivier Méhu
Technical & hardware support : Manuel Goepfert

Contact : metmap@orbifly.com




SOURCES & CREDITS :

   NOAA